createdAt,value
2024-01-24T00:01:06.958Z,99658.59
2024-01-24T00:03:49.243Z,99646.14
2024-01-24T00:06:17.452Z,99637.20
2024-01-24T00:08:45.770Z,99637.81
2024-01-24T00:11:13.911Z,99634.91
2024-01-24T00:13:41.958Z,99633.59
2024-01-24T00:16:10.172Z,99617.48
2024-01-24T00:18:38.429Z,99605.03
2024-01-24T00:21:06.927Z,99598.68
2024-01-24T00:23:35.085Z,99587.46
2024-01-24T00:26:03.206Z,99581.64
2024-01-24T00:28:31.335Z,99574.59
2024-01-24T00:30:59.409Z,99568.73
2024-01-24T00:33:30.583Z,99562.33
2024-01-24T00:35:58.861Z,99556.98
2024-01-24T00:38:26.983Z,99550.06
2024-01-24T00:40:55.339Z,99545.95
2024-01-24T00:43:24.102Z,99538.86
2024-01-24T00:45:52.264Z,99530.08
2024-01-24T00:48:20.511Z,99521.09
2024-01-24T00:50:48.629Z,99517.70
2024-01-24T00:53:21.071Z,99515.53
2024-01-24T00:55:49.306Z,99509.88
2024-01-24T00:58:19.040Z,99500.09
2024-01-24T01:00:47.361Z,99486.11
2024-01-24T01:03:16.000Z,99468.65
2024-01-24T01:05:44.754Z,99452.89
2024-01-24T01:08:12.965Z,99447.79
2024-01-24T01:10:41.059Z,99447.01
2024-01-24T01:13:09.137Z,99437.86
2024-01-24T01:15:37.197Z,99429.30
2024-01-24T01:18:05.868Z,99418.23
2024-01-24T01:20:33.933Z,99400.73
2024-01-24T01:23:03.809Z,99384.65
2024-01-24T01:25:31.907Z,99370.65
2024-01-24T01:28:00.142Z,99358.05
2024-01-24T01:30:28.363Z,99348.05
2024-01-24T01:32:56.879Z,99343.96
2024-01-24T01:35:25.096Z,99340.75
2024-01-24T01:37:53.174Z,99334.74
2024-01-24T01:40:21.489Z,99320.71
2024-01-24T01:42:49.746Z,99315.39
2024-01-24T01:45:18.009Z,99309.05
2024-01-24T01:47:49.187Z,99307.06
2024-01-24T01:50:18.598Z,99299.17
2024-01-24T01:52:47.626Z,99284.50
2024-01-24T01:55:16.617Z,99275.23
2024-01-24T01:57:45.654Z,99266.80
2024-01-24T02:00:22.070Z,99256.98
2024-01-24T02:02:51.659Z,99250.78
2024-01-24T02:05:20.628Z,99237.63
2024-01-24T02:07:49.006Z,99225.83
2024-01-24T02:10:17.245Z,99213.84
2024-01-24T02:12:45.389Z,99209.72
2024-01-24T02:15:13.672Z,99208.05
2024-01-24T02:17:41.869Z,99212.82
2024-01-24T02:20:11.926Z,99214.26
2024-01-24T02:22:39.970Z,99197.19
2024-01-24T02:25:08.699Z,99182.02
2024-01-24T02:27:37.086Z,99161.61
2024-01-24T02:30:06.270Z,99149.27
2024-01-24T02:32:34.542Z,99144.23
2024-01-24T02:35:02.671Z,99136.58
2024-01-24T02:37:31.533Z,99128.61
2024-01-24T02:39:59.896Z,99118.00
2024-01-24T02:42:28.050Z,99104.83
2024-01-24T02:44:56.182Z,99105.42
2024-01-24T02:47:24.399Z,99095.73
2024-01-24T02:49:52.449Z,99082.20
2024-01-24T02:52:20.572Z,99081.41
2024-01-24T02:54:48.743Z,99079.05
2024-01-24T02:57:17.058Z,99075.78
2024-01-24T02:59:45.226Z,99053.52
2024-01-24T03:02:13.381Z,99033.17
2024-01-24T03:04:41.600Z,99043.19
2024-01-24T03:07:09.940Z,99031.40
2024-01-24T03:09:38.191Z,99016.56
2024-01-24T03:12:06.518Z,99012.63
2024-01-24T03:14:34.636Z,99001.67
2024-01-24T03:17:02.739Z,98999.88
2024-01-24T03:19:31.043Z,98990.67
2024-01-24T03:21:59.611Z,98989.88
2024-01-24T03:24:27.937Z,98993.09
2024-01-24T03:26:56.038Z,98997.67
2024-01-24T03:29:24.070Z,98999.38
2024-01-24T03:31:52.104Z,99000.55
2024-01-24T03:34:20.479Z,98991.04
2024-01-24T03:36:48.826Z,98981.45
2024-01-24T03:39:17.083Z,98979.44
2024-01-24T03:41:45.673Z,98975.17
2024-01-24T03:44:13.906Z,98965.67
2024-01-24T03:46:42.130Z,98957.27
2024-01-24T03:49:10.326Z,98952.33
2024-01-24T03:51:38.543Z,98944.75
2024-01-24T03:54:06.812Z,98929.52
2024-01-24T03:56:34.874Z,98925.60
2024-01-24T03:59:03.386Z,98924.94
2024-01-24T04:01:31.767Z,98921.96
2024-01-24T04:03:59.953Z,98911.65
2024-01-24T04:06:28.400Z,98912.86
2024-01-24T04:08:56.584Z,98907.95
2024-01-24T04:11:24.610Z,98897.10
2024-01-24T04:13:57.776Z,98876.79
2024-01-24T04:16:25.871Z,98860.04
2024-01-24T04:18:54.117Z,98848.55
2024-01-24T04:21:22.282Z,98832.77
2024-01-24T04:23:50.680Z,98822.27
2024-01-24T04:26:22.495Z,98811.29
2024-01-24T04:28:50.642Z,98805.21
2024-01-24T04:31:18.705Z,98801.52
2024-01-24T04:33:46.851Z,98797.00
2024-01-24T04:36:15.216Z,98798.02
2024-01-24T04:38:44.922Z,98790.92
2024-01-24T04:41:13.167Z,98784.29
2024-01-24T04:43:41.268Z,98781.67
2024-01-24T04:46:16.198Z,98763.33
2024-01-24T04:48:45.856Z,98746.41
2024-01-24T04:51:14.128Z,98753.45
2024-01-24T04:53:42.284Z,98754.70
2024-01-24T04:56:10.479Z,98756.08
2024-01-24T04:58:38.648Z,98754.13
2024-01-24T05:01:06.913Z,98728.95
2024-01-24T05:03:35.221Z,98729.42
2024-01-24T05:06:09.914Z,98724.31
2024-01-24T05:08:39.753Z,98711.80
2024-01-24T05:11:07.948Z,98701.64
2024-01-24T05:13:36.129Z,98698.00
2024-01-24T05:16:04.642Z,98697.64
2024-01-24T05:18:32.943Z,98690.58
2024-01-24T05:21:03.517Z,98687.01
2024-01-24T05:23:31.948Z,98681.95
2024-01-24T05:26:00.033Z,98682.09
2024-01-24T05:28:28.130Z,98674.36
2024-01-24T05:30:56.195Z,98682.77
2024-01-24T05:33:24.936Z,98670.70
2024-01-24T05:35:53.475Z,98676.41
2024-01-24T05:38:21.577Z,98674.97
2024-01-24T05:40:49.917Z,98679.17
2024-01-24T05:43:18.487Z,98681.42
2024-01-24T05:45:51.198Z,98673.90
2024-01-24T05:48:19.590Z,98671.48
2024-01-24T05:50:47.785Z,98672.17
2024-01-24T05:53:15.868Z,98664.95
2024-01-24T05:55:44.049Z,98659.88
2024-01-24T05:58:12.623Z,98649.05
2024-01-24T06:00:40.854Z,98652.90
2024-01-24T06:03:09.063Z,98649.02
2024-01-24T06:05:37.397Z,98639.85
2024-01-24T06:08:06.853Z,98628.31
2024-01-24T06:10:35.137Z,98641.39
2024-01-24T06:13:03.500Z,98642.41
2024-01-24T06:15:31.678Z,98644.77
2024-01-24T06:17:59.836Z,98647.23
2024-01-24T06:20:28.594Z,98647.23
2024-01-24T06:22:56.687Z,98644.98
2024-01-24T06:25:24.790Z,98649.55
2024-01-24T06:27:53.176Z,98644.95
2024-01-24T06:30:23.547Z,98647.02
2024-01-24T06:32:53.415Z,98649.82
2024-01-24T06:35:22.667Z,98653.58
2024-01-24T06:37:52.965Z,98653.44
2024-01-24T06:40:21.380Z,98651.38
2024-01-24T06:42:50.504Z,98648.36
2024-01-24T06:45:18.893Z,98641.86
2024-01-24T06:47:47.274Z,98640.84
2024-01-24T06:50:15.626Z,98644.30
2024-01-24T06:52:44.015Z,98638.52
2024-01-24T06:55:12.972Z,98638.54
2024-01-24T06:57:41.239Z,98630.27
2024-01-24T07:00:11.392Z,98619.97
2024-01-24T07:02:40.096Z,98611.80
2024-01-24T07:05:08.501Z,98618.00
2024-01-24T07:07:38.709Z,98632.61
2024-01-24T07:10:12.710Z,98640.06
2024-01-24T07:12:46.956Z,98626.57
2024-01-24T07:15:17.659Z,98626.40
2024-01-24T07:17:46.828Z,98619.49
2024-01-24T07:20:17.063Z,98612.90
2024-01-24T07:22:45.365Z,98610.38
2024-01-24T07:25:13.496Z,98606.02
2024-01-24T07:27:41.690Z,98606.52
2024-01-24T07:30:10.178Z,98601.77
2024-01-24T07:32:41.493Z,98601.64
2024-01-24T07:35:12.959Z,98598.11
2024-01-24T07:37:41.108Z,98589.16
2024-01-24T07:40:19.654Z,98589.80
2024-01-24T07:42:49.119Z,98585.86
2024-01-24T07:45:19.788Z,98588.67
2024-01-24T07:47:48.973Z,98594.80
2024-01-24T07:50:17.504Z,98594.63
2024-01-24T07:52:45.837Z,98595.40
2024-01-24T07:55:17.538Z,98597.09
2024-01-24T07:57:46.135Z,98594.25
2024-01-24T08:00:17.983Z,98598.42
2024-01-24T08:02:47.664Z,98596.91
2024-01-24T08:05:20.850Z,98591.19
2024-01-24T08:07:49.421Z,98581.49
2024-01-24T08:10:19.048Z,98572.28
2024-01-24T08:12:47.481Z,98566.88
2024-01-24T08:15:15.994Z,98567.62
2024-01-24T08:17:44.906Z,98571.23
2024-01-24T08:20:13.390Z,98576.39
2024-01-24T08:22:41.581Z,98570.02
2024-01-24T08:25:09.866Z,98573.44
2024-01-24T08:27:38.231Z,98568.31
2024-01-24T08:30:07.218Z,98565.73
2024-01-24T08:32:35.495Z,98567.62
2024-01-24T08:35:05.130Z,98563.99
2024-01-24T08:37:33.252Z,98545.53
2024-01-24T08:40:01.478Z,98537.15
2024-01-24T08:42:30.329Z,98538.09
2024-01-24T08:44:58.466Z,98528.79
2024-01-24T08:47:26.772Z,98535.01
2024-01-24T08:49:57.835Z,98532.33
2024-01-24T08:52:26.585Z,98538.48
2024-01-24T08:54:54.844Z,98533.60
2024-01-24T08:57:23.624Z,98536.86
2024-01-24T08:59:53.377Z,98534.14
2024-01-24T09:02:21.656Z,98532.73
2024-01-24T09:04:52.936Z,98534.48
2024-01-24T09:07:21.425Z,98532.30
2024-01-24T09:09:52.919Z,98541.73
2024-01-24T09:12:21.441Z,98540.48
2024-01-24T09:14:50.174Z,98543.55
2024-01-24T09:17:19.077Z,98539.27
2024-01-24T09:19:49.100Z,98534.00
2024-01-24T09:22:18.311Z,98533.44
2024-01-24T09:24:46.751Z,98518.90
2024-01-24T09:27:18.516Z,98533.04
2024-01-24T09:29:46.700Z,98536.37
2024-01-24T09:32:15.064Z,98541.11
2024-01-24T09:34:44.424Z,98527.46
2024-01-24T09:37:13.110Z,98522.25
2024-01-24T09:39:41.385Z,98528.63
2024-01-24T09:42:21.010Z,98529.16
2024-01-24T09:44:52.357Z,98512.23
2024-01-24T09:47:23.637Z,98517.23
2024-01-24T09:49:52.381Z,98522.02
2024-01-24T09:52:26.287Z,98520.52
2024-01-24T09:55:01.098Z,98494.85
2024-01-24T09:57:29.440Z,98485.52
2024-01-24T09:59:58.175Z,98477.65
2024-01-24T10:02:27.683Z,98477.26
2024-01-24T10:04:59.101Z,98479.05
2024-01-24T10:07:29.299Z,98478.71
2024-01-24T10:10:07.952Z,98477.36
2024-01-24T10:12:36.967Z,98484.70
2024-01-24T10:15:05.547Z,98471.07
2024-01-24T10:17:33.769Z,98483.19
2024-01-24T10:20:02.250Z,98481.64
2024-01-24T10:22:30.588Z,98486.89
2024-01-24T10:24:59.769Z,98494.37
2024-01-24T10:27:29.047Z,98488.23
2024-01-24T10:29:58.112Z,98484.15
2024-01-24T10:32:26.329Z,98492.77
2024-01-24T10:34:54.798Z,98498.78
2024-01-24T10:37:23.559Z,98504.74
2024-01-24T10:39:54.788Z,98500.44
2024-01-24T10:42:29.957Z,98501.52
2024-01-24T10:45:01.810Z,98505.95
2024-01-24T10:47:31.658Z,98496.54
2024-01-24T10:50:05.098Z,98508.55
2024-01-24T10:52:36.877Z,98507.05
2024-01-24T10:55:12.385Z,98513.34
2024-01-24T10:57:44.811Z,98516.52
2024-01-24T11:00:17.007Z,98510.02
2024-01-24T11:02:45.472Z,98506.95
2024-01-24T11:05:20.683Z,98498.94
2024-01-24T11:08:04.249Z,98488.23
2024-01-24T11:10:37.497Z,98472.36
2024-01-24T11:13:06.712Z,98467.19
2024-01-24T11:15:36.285Z,98453.76
2024-01-24T11:18:24.166Z,98452.98
2024-01-24T11:20:55.130Z,98438.23
2024-01-24T11:23:45.779Z,98436.15
2024-01-24T11:26:47.384Z,98430.73
2024-01-24T11:29:15.942Z,98442.35
2024-01-24T11:31:44.723Z,98457.54
2024-01-24T11:34:14.304Z,98454.61
2024-01-24T11:36:52.278Z,98454.81
2024-01-24T11:39:41.229Z,98466.22
2024-01-24T11:42:25.230Z,98477.88
2024-01-24T11:44:54.616Z,98513.80
2024-01-24T11:47:24.044Z,98532.67
2024-01-24T11:49:53.817Z,98540.02
2024-01-24T11:52:22.573Z,98589.81
2024-01-24T11:54:54.859Z,98553.73
2024-01-24T11:57:23.359Z,98574.34
2024-01-24T11:59:51.531Z,98566.68
2024-01-24T12:02:19.783Z,98572.46
2024-01-24T12:04:51.688Z,98577.14
2024-01-24T12:07:20.815Z,98564.32
2024-01-24T12:09:49.670Z,98582.21
2024-01-24T12:12:19.334Z,98591.76
2024-01-24T12:14:48.239Z,98591.79
2024-01-24T12:17:16.942Z,98600.73
2024-01-24T12:19:46.410Z,98599.02
2024-01-24T12:22:16.882Z,98597.47
2024-01-24T12:24:45.302Z,98597.39
2024-01-24T12:27:27.966Z,98595.20
2024-01-24T12:29:56.521Z,98603.82
2024-01-24T12:32:25.314Z,98611.27
2024-01-24T12:34:57.109Z,98609.66
2024-01-24T12:37:25.436Z,98602.64
2024-01-24T12:39:57.549Z,98603.04
2024-01-24T12:42:25.740Z,98600.53
2024-01-24T12:44:55.264Z,98601.73
2024-01-24T12:47:23.910Z,98610.50
2024-01-24T12:49:52.245Z,98615.55
2024-01-24T12:52:20.590Z,98615.36
2024-01-24T12:54:48.855Z,98608.55
2024-01-24T12:57:18.619Z,98618.11
2024-01-24T12:59:47.030Z,98616.15
2024-01-24T13:02:15.430Z,98619.13
2024-01-24T13:04:45.441Z,98627.27
2024-01-24T13:07:14.314Z,98619.73
2024-01-24T13:09:46.296Z,98625.88
2024-01-24T13:12:22.606Z,98630.65
2024-01-24T13:14:50.954Z,98640.20
2024-01-24T13:17:20.853Z,98644.09
2024-01-24T13:19:49.746Z,98639.29
2024-01-24T13:22:18.799Z,98652.16
2024-01-24T13:24:48.008Z,98654.34
2024-01-24T13:27:19.941Z,98650.21
2024-01-24T13:29:48.213Z,98652.55
2024-01-24T13:32:16.553Z,98643.70
2024-01-24T13:34:45.008Z,98639.30
2024-01-24T13:37:15.313Z,98643.92
2024-01-24T13:39:44.392Z,98633.23
2024-01-24T13:42:12.990Z,98635.97
2024-01-24T13:44:41.580Z,98637.85
2024-01-24T13:47:09.965Z,98640.88
2024-01-24T13:49:42.839Z,98635.88
2024-01-24T13:52:11.667Z,98641.05
2024-01-24T13:54:39.842Z,98649.12
2024-01-24T13:57:08.444Z,98651.90
2024-01-24T13:59:36.794Z,98658.73
2024-01-24T14:02:05.023Z,98660.63
2024-01-24T14:04:33.338Z,98663.86
2024-01-24T14:07:02.509Z,98663.69
2024-01-24T14:09:30.926Z,98658.91
2024-01-24T14:11:59.872Z,98659.94
2024-01-24T14:14:29.491Z,98657.48
2024-01-24T14:17:00.591Z,98648.98
2024-01-24T14:19:29.001Z,98657.05
2024-01-24T14:21:57.532Z,98656.86
2024-01-24T14:24:25.783Z,98656.02
2024-01-24T14:26:54.409Z,98655.06
2024-01-24T14:29:24.575Z,98654.21
2024-01-24T14:31:52.745Z,98664.34
2024-01-24T14:34:21.005Z,98674.68
2024-01-24T14:36:52.541Z,98661.80
2024-01-24T14:39:24.364Z,98668.18
2024-01-24T14:41:52.581Z,98652.83
2024-01-24T14:44:20.828Z,98669.77
2024-01-24T14:46:48.943Z,98672.14
2024-01-24T14:49:17.174Z,98671.05
2024-01-24T14:51:45.296Z,98670.02
2024-01-24T14:54:13.314Z,98676.94
2024-01-24T14:56:41.362Z,98690.75
2024-01-24T14:59:09.517Z,98692.48
2024-01-24T15:01:37.902Z,98694.98
2024-01-24T15:04:06.340Z,98698.84
2024-01-24T15:06:34.703Z,98713.67
2024-01-24T15:09:02.852Z,98700.49
2024-01-24T15:11:31.005Z,98722.83
2024-01-24T15:13:59.164Z,98726.09
2024-01-24T15:16:29.387Z,98722.57
2024-01-24T15:18:58.336Z,98733.64
2024-01-24T15:21:27.674Z,98734.93
2024-01-24T15:24:00.204Z,98736.80
2024-01-24T15:26:28.763Z,98753.55
2024-01-24T15:28:56.944Z,98748.88
2024-01-24T15:31:25.197Z,98748.64
2024-01-24T15:33:54.225Z,98756.58
2024-01-24T15:36:22.550Z,98754.32
2024-01-24T15:38:52.119Z,98770.17
2024-01-24T15:41:20.477Z,98739.69
2024-01-24T15:43:48.727Z,98742.61
2024-01-24T15:46:16.909Z,98753.65
2024-01-24T15:48:45.549Z,98746.34
2024-01-24T15:51:17.722Z,98749.95
2024-01-24T15:53:46.007Z,98742.10
2024-01-24T15:56:14.360Z,98737.23
2024-01-24T15:58:42.436Z,98747.55
2024-01-24T16:01:10.740Z,98755.98
2024-01-24T16:03:39.054Z,98757.48
2024-01-24T16:06:07.756Z,98761.95
2024-01-24T16:08:36.005Z,98754.27
2024-01-24T16:11:04.327Z,98751.63
2024-01-24T16:13:32.813Z,98722.42
2024-01-24T16:16:03.589Z,98728.86
2024-01-24T16:18:32.324Z,98731.02
2024-01-24T16:21:05.149Z,98727.29
2024-01-24T16:23:33.544Z,98739.85
2024-01-24T16:26:01.920Z,98741.48
2024-01-24T16:28:30.014Z,98738.34
2024-01-24T16:30:58.236Z,98743.20
2024-01-24T16:33:27.432Z,98744.34
2024-01-24T16:35:55.604Z,98739.05
2024-01-24T16:38:23.656Z,98746.73
2024-01-24T16:40:52.554Z,98741.84
2024-01-24T16:43:21.008Z,98745.40
2024-01-24T16:45:50.864Z,98751.43
2024-01-24T16:48:19.513Z,98745.01
2024-01-24T16:50:48.017Z,98751.73
2024-01-24T16:53:16.655Z,98746.52
2024-01-24T16:55:44.760Z,98753.46
2024-01-24T16:58:14.396Z,98754.09
2024-01-24T17:00:42.782Z,98744.71
2024-01-24T17:03:11.016Z,98748.01
2024-01-24T17:05:39.188Z,98739.52
2024-01-24T17:08:07.995Z,98743.92
2024-01-24T17:10:36.103Z,98742.73
2024-01-24T17:13:04.401Z,98744.92
2024-01-24T17:15:32.603Z,98741.91
2024-01-24T17:18:05.237Z,98739.08
2024-01-24T17:20:33.918Z,98741.66
2024-01-24T17:23:02.091Z,98743.53
2024-01-24T17:25:30.672Z,98738.39
2024-01-24T17:27:59.060Z,98743.17
2024-01-24T17:30:27.329Z,98749.94
2024-01-24T17:32:55.696Z,98762.16
2024-01-24T17:35:23.761Z,98763.68
2024-01-24T17:37:51.975Z,98771.88
2024-01-24T17:40:20.187Z,98765.98
2024-01-24T17:42:48.351Z,98778.91
2024-01-24T17:45:16.693Z,98775.68
2024-01-24T17:47:45.201Z,98791.42
2024-01-24T17:50:13.467Z,98789.44
2024-01-24T17:52:43.776Z,98787.48
2024-01-24T17:55:11.940Z,98803.09
2024-01-24T17:57:40.299Z,98794.91
2024-01-24T18:00:09.051Z,98793.32
2024-01-24T18:02:37.306Z,98797.30
2024-01-24T18:05:06.965Z,98784.06
2024-01-24T18:07:35.317Z,98789.48
2024-01-24T18:10:03.771Z,98780.54
2024-01-24T18:12:32.594Z,98766.52
2024-01-24T18:15:00.668Z,98777.61
2024-01-24T18:17:28.903Z,98785.02
2024-01-24T18:19:57.118Z,98784.96
2024-01-24T18:22:25.346Z,98791.94
2024-01-24T18:24:53.522Z,98783.91
2024-01-24T18:27:21.551Z,98782.60
2024-01-24T18:29:53.576Z,98788.23
2024-01-24T18:34:42.512Z,98795.85
2024-01-24T18:37:10.944Z,98796.00
2024-01-24T18:39:39.020Z,98801.86
2024-01-24T18:42:08.988Z,98805.09
2024-01-24T18:44:37.653Z,98805.34
2024-01-24T18:47:06.992Z,98824.02
2024-01-24T18:49:35.278Z,98828.00
2024-01-24T18:52:03.820Z,98823.90
2024-01-24T18:54:32.342Z,98842.60
2024-01-24T18:57:00.475Z,98857.06
2024-01-24T18:59:29.144Z,98857.61
2024-01-24T19:01:57.375Z,98839.00
2024-01-24T19:04:26.331Z,98846.18
2024-01-24T19:06:56.499Z,98841.88
2024-01-24T19:09:25.072Z,98825.67
2024-01-24T19:11:55.222Z,98834.13
2024-01-24T19:14:23.559Z,98830.80
2024-01-24T19:16:51.839Z,98847.80
2024-01-24T19:19:21.775Z,98842.73
2024-01-24T19:21:50.245Z,98850.73
2024-01-24T19:24:19.427Z,98859.31
2024-01-24T19:26:47.505Z,98861.30
2024-01-24T19:29:15.578Z,98871.53
2024-01-24T19:31:43.738Z,98879.81
2024-01-24T19:34:12.277Z,98867.46
2024-01-24T19:36:40.878Z,98879.61
2024-01-24T19:39:10.259Z,98899.55
2024-01-24T19:41:39.337Z,98891.45
2024-01-24T19:44:07.854Z,98881.77
2024-01-24T19:46:36.073Z,98888.64
2024-01-24T19:49:04.500Z,98901.67
2024-01-24T19:51:33.004Z,98886.39
2024-01-24T19:54:02.298Z,98897.91
2024-01-24T19:56:30.633Z,98895.36
2024-01-24T19:59:00.595Z,98903.05
2024-01-24T20:01:29.035Z,98893.09
2024-01-24T20:03:57.242Z,98892.04
2024-01-24T20:06:29.756Z,98885.05
2024-01-24T20:09:02.759Z,98889.66
2024-01-24T20:11:31.126Z,98874.88
2024-01-24T20:13:59.389Z,98883.57
2024-01-24T20:16:27.623Z,98882.54
2024-01-24T20:18:56.978Z,98889.84
2024-01-24T20:21:25.578Z,98880.42
2024-01-24T20:23:53.832Z,98878.31
2024-01-24T20:26:23.601Z,98882.71
2024-01-24T20:28:52.103Z,98884.45
2024-01-24T20:31:20.262Z,98869.38
2024-01-24T20:33:48.604Z,98885.80
2024-01-24T20:36:16.892Z,98893.30
2024-01-24T20:38:45.992Z,98889.30
2024-01-24T20:41:14.163Z,98893.31
2024-01-24T20:43:43.074Z,98911.18
2024-01-24T20:46:12.379Z,98903.05
2024-01-24T20:48:41.759Z,98914.45
2024-01-24T20:51:10.012Z,98907.14
2024-01-24T20:53:38.183Z,98907.10
2024-01-24T20:56:06.676Z,98893.21
2024-01-24T20:58:35.383Z,98886.66
2024-01-24T21:01:04.615Z,98898.62
2024-01-24T21:03:34.363Z,98900.33
2024-01-24T21:06:03.057Z,98889.23
2024-01-24T21:08:31.538Z,98889.56
2024-01-24T21:11:03.532Z,98900.48
2024-01-24T21:13:32.861Z,98903.42
2024-01-24T21:16:02.419Z,98912.63
2024-01-24T21:18:30.745Z,98907.36
2024-01-24T21:20:59.194Z,98911.77
2024-01-24T21:23:27.548Z,98912.39
2024-01-24T21:25:55.787Z,98911.58
2024-01-24T21:28:23.963Z,98921.31
2024-01-24T21:30:52.133Z,98931.13
2024-01-24T21:33:20.303Z,98935.19
2024-01-24T21:35:48.499Z,98931.52
2024-01-24T21:38:18.461Z,98936.71
2024-01-24T21:40:46.753Z,98937.67
2024-01-24T21:43:15.078Z,98942.66
2024-01-24T21:45:43.258Z,98950.96
2024-01-24T21:48:11.911Z,98948.59
2024-01-24T21:50:40.059Z,98952.94
2024-01-24T21:53:08.734Z,98959.13
2024-01-24T21:55:36.853Z,98963.55
2024-01-24T21:58:05.670Z,98960.98
2024-01-24T22:00:33.998Z,98973.52
2024-01-24T22:03:02.287Z,98969.70
2024-01-24T22:05:30.546Z,98974.99
2024-01-24T22:07:58.834Z,98951.20
2024-01-24T22:10:27.095Z,98945.12
2024-01-24T22:12:56.174Z,98957.04
2024-01-24T22:15:24.583Z,98951.71
2024-01-24T22:17:53.230Z,98959.23
2024-01-24T22:20:21.459Z,98954.66
2024-01-24T22:22:49.537Z,98972.66
2024-01-24T22:25:18.482Z,98976.95
2024-01-24T22:27:46.980Z,98976.97
2024-01-24T22:30:17.708Z,98969.73
2024-01-24T22:32:45.899Z,98981.33
2024-01-24T22:35:14.576Z,98983.79
2024-01-24T22:37:43.048Z,98983.75
2024-01-24T22:40:11.439Z,98987.31
2024-01-24T22:42:39.694Z,98990.10
2024-01-24T22:45:08.739Z,98989.74
2024-01-24T22:47:37.038Z,98994.64
2024-01-24T22:50:06.091Z,98989.06
2024-01-24T22:52:34.392Z,98986.89
2024-01-24T22:55:03.194Z,98970.63
2024-01-24T22:57:31.367Z,98979.73
2024-01-24T23:00:00.257Z,98983.63
2024-01-24T23:02:28.972Z,98977.77
2024-01-24T23:04:57.215Z,98974.08
2024-01-24T23:07:25.531Z,98967.11
2024-01-24T23:09:53.897Z,98978.05
2024-01-24T23:12:22.110Z,98974.92
2024-01-24T23:14:50.207Z,98986.11
2024-01-24T23:17:19.489Z,98975.07
2024-01-24T23:19:47.796Z,98952.13
2024-01-24T23:22:16.118Z,98975.67
2024-01-24T23:24:44.293Z,98985.28
2024-01-24T23:27:12.503Z,98983.73
2024-01-24T23:29:40.652Z,98977.98
2024-01-24T23:32:09.282Z,98980.27
2024-01-24T23:34:37.957Z,98982.17
2024-01-24T23:37:06.414Z,98982.66
2024-01-24T23:39:34.624Z,98991.27
2024-01-24T23:42:02.770Z,98983.34
2024-01-24T23:44:30.998Z,98982.92
2024-01-24T23:46:59.079Z,98979.73
2024-01-24T23:49:27.423Z,98968.22
2024-01-24T23:51:55.918Z,98974.23
2024-01-24T23:54:24.302Z,98983.94
2024-01-24T23:56:52.305Z,98995.86
2024-01-24T23:59:20.379Z,98993.44
